Time;durP1;ratioP1;P1;durP2;ratioP2;P2;SDS_P1;SDS_P2;PMS_P1;PMS_P2;Temp;Humidity;BMP_temperature;BMP_pressure;BME280_temperature;BME280_humidity;BME280_pressure;Samples;Min_cycle;Max_cycle;Signal;HPM_P1;HPM_P2
2022/01/27 00:01:07;;;;;;;33.05;19.83;;;0.40;99.90;;;;;;5098600;28;20200;-81
2022/01/27 00:03:38;;;;;;;33.08;20.70;;;0.30;99.90;;;;;;5101513;28;20208;-82
2022/01/27 00:06:08;;;;;;;28.45;16.10;;;0.30;99.90;;;;;;5101233;28;20617;-81
2022/01/27 00:08:42;;;;;;;37.95;20.58;;;0.30;99.90;;;;;;5100875;28;20280;-81
2022/01/27 00:11:11;;;;;;;39.58;19.80;;;0.30;99.90;;;;;;5100108;28;20394;-82
2022/01/27 00:13:44;;;;;;;31.75;19.70;;;0.40;99.90;;;;;;5101051;28;20209;-82
2022/01/27 00:16:16;;;;;;;30.67;19.65;;;0.40;99.90;;;;;;5118730;28;20205;-82
2022/01/27 00:18:44;;;;;;;32.50;18.60;;;0.50;99.90;;;;;;5117240;28;20242;-80
2022/01/27 00:21:11;;;;;;;28.70;18.40;;;0.70;99.90;;;;;;5119144;28;20230;-82
2022/01/27 00:23:40;;;;;;;35.50;17.60;;;0.80;99.90;;;;;;5100712;28;20209;-82
2022/01/27 00:26:07;;;;;;;36.45;19.92;;;0.90;99.90;;;;;;5118962;28;20208;-80
2022/01/27 00:28:35;;;;;;;34.03;21.08;;;1.00;99.90;;;;;;5126768;28;20230;-79
2022/01/27 00:31:02;;;;;;;31.52;20.33;;;1.20;99.90;;;;;;5125304;28;20212;-79
2022/01/27 00:33:29;;;;;;;28.48;18.63;;;1.20;99.90;;;;;;5123418;28;20288;-80
2022/01/27 00:35:56;;;;;;;36.45;19.52;;;1.10;99.90;;;;;;5124466;28;20324;-80
2022/01/27 00:38:23;;;;;;;29.98;21.17;;;1.10;99.90;;;;;;5124204;28;20231;-79
2022/01/27 00:40:50;;;;;;;36.58;22.48;;;1.20;99.90;;;;;;5123605;28;20204;-79
2022/01/27 00:43:17;;;;;;;33.58;18.98;;;1.10;99.90;;;;;;5123644;28;20268;-81
2022/01/27 00:45:46;;;;;;;30.65;19.88;;;1.00;99.90;;;;;;5102777;28;20196;-79
2022/01/27 00:48:15;;;;;;;33.20;19.38;;;0.90;99.90;;;;;;5109714;28;20216;-80
2022/01/27 00:50:42;;;;;;;36.88;21.63;;;0.80;99.90;;;;;;5099403;28;20204;-81
2022/01/27 00:53:24;;;;;;;31.77;18.00;;;0.90;99.90;;;;;;5088171;28;20205;-82
2022/01/27 00:55:51;;;;;;;32.33;20.00;;;0.90;99.90;;;;;;5080800;28;20212;-82
2022/01/27 00:58:32;;;;;;;32.60;19.48;;;0.90;99.90;;;;;;5091752;28;20224;-81
2022/01/27 01:01:06;;;;;;;38.15;20.98;;;1.00;99.90;;;;;;5099776;28;20222;-82
2022/01/27 01:03:36;;;;;;;32.17;19.63;;;1.00;99.90;;;;;;5086000;28;20203;-81
2022/01/27 01:06:20;;;;;;;26.77;19.02;;;0.90;99.90;;;;;;5099947;28;20205;-81
2022/01/27 01:14:38;;;;;;;28.45;21.65;;;0.90;99.90;;;;;;5043532;28;20208;-81
2022/01/27 01:17:18;;;;;;;36.00;18.33;;;0.80;99.90;;;;;;5070944;28;20228;-81
2022/01/27 01:20:00;;;;;;;30.55;18.08;;;0.70;99.90;;;;;;5079405;28;20234;-81
2022/01/27 01:30:51;;;;;;;30.00;17.55;;;0.80;99.90;;;;;;5082482;28;20690;-80
2022/01/27 01:33:26;;;;;;;33.38;19.55;;;0.80;99.90;;;;;;5079214;28;20205;-81
2022/01/27 01:36:02;;;;;;;35.50;20.20;;;0.80;99.90;;;;;;5097103;28;20599;-81
2022/01/27 01:38:30;;;;;;;31.10;17.70;;;1.00;99.90;;;;;;5099272;28;20232;-81
2022/01/27 01:40:57;;;;;;;32.97;20.17;;;1.00;99.90;;;;;;5086078;28;20575;-81
2022/01/27 01:43:24;;;;;;;32.80;19.83;;;1.10;99.90;;;;;;5099213;28;20551;-81
2022/01/27 01:45:51;;;;;;;29.70;18.10;;;1.20;99.90;;;;;;5099731;28;20294;-81
2022/01/27 01:48:19;;;;;;;30.50;19.10;;;1.30;99.90;;;;;;5098266;28;20239;-81
2022/01/27 01:50:47;;;;;;;38.83;19.08;;;1.30;99.90;;;;;;5098777;28;20216;-81
2022/01/27 01:53:13;;;;;;;34.70;18.67;;;1.20;99.90;;;;;;5088140;28;20210;-81
2022/01/27 01:55:40;;;;;;;34.45;19.00;;;1.10;99.90;;;;;;5078498;28;20209;-80
2022/01/27 01:58:07;;;;;;;36.55;22.00;;;1.20;99.90;;;;;;5088428;28;20235;-81
2022/01/27 02:00:34;;;;;;;38.15;21.80;;;1.20;99.90;;;;;;5097350;28;20217;-80
2022/01/27 02:03:01;;;;;;;27.25;18.80;;;1.10;99.90;;;;;;5088395;28;20204;-81
2022/01/27 02:05:34;;;;;;;36.38;19.60;;;1.10;99.90;;;;;;5078966;28;20202;-80
2022/01/27 02:08:27;;;;;;;32.72;19.80;;;1.20;99.90;;;;;;5080204;28;20224;-82
2022/01/27 02:19:12;;;;;;;28.40;17.90;;;1.10;99.90;;;;;;5080797;28;20224;-80
2022/01/27 02:21:46;;;;;;;31.75;20.23;;;1.10;99.90;;;;;;5097635;28;20208;-81
2022/01/27 02:24:13;;;;;;;39.05;22.60;;;1.00;99.90;;;;;;5097727;28;20585;-80
2022/01/27 02:26:41;;;;;;;26.30;15.05;;;0.90;99.90;;;;;;5082951;28;20221;-81
2022/01/27 02:29:08;;;;;;;36.58;19.58;;;0.70;99.90;;;;;;5077112;28;20201;-81
2022/01/27 02:31:35;;;;;;;36.25;20.25;;;0.80;99.90;;;;;;5090023;28;20207;-80
2022/01/27 02:34:01;;;;;;;37.63;20.00;;;0.80;99.90;;;;;;5078181;28;20205;-81
2022/01/27 02:36:28;;;;;;;33.70;20.52;;;0.50;99.90;;;;;;5088145;28;20203;-79
2022/01/27 02:38:56;;;;;;;32.20;19.23;;;0.30;99.90;;;;;;5098208;28;20590;-81
2022/01/27 02:41:27;;;;;;;31.30;20.65;;;0.40;99.90;;;;;;5086568;28;20212;-81
2022/01/27 02:43:55;;;;;;;30.05;20.15;;;0.60;99.90;;;;;;5079603;28;20201;-81
2022/01/27 02:46:31;;;;;;;28.25;18.67;;;0.50;99.90;;;;;;5087504;28;20212;-81
2022/01/27 02:48:58;;;;;;;37.58;20.35;;;0.30;99.90;;;;;;5098521;28;20211;-81
2022/01/27 02:51:25;;;;;;;32.40;20.52;;;0.40;99.90;;;;;;5087730;28;20212;-80
2022/01/27 02:53:52;;;;;;;36.28;19.05;;;0.60;99.90;;;;;;5092596;28;20196;-81
2022/01/27 02:56:20;;;;;;;33.28;17.35;;;0.50;99.90;;;;;;5097200;28;20215;-81
2022/01/27 02:58:46;;;;;;;32.80;17.80;;;0.40;99.90;;;;;;5092665;28;20311;-80
2022/01/27 03:01:19;;;;;;;25.58;18.05;;;0.30;99.90;;;;;;5097258;28;20201;-81
2022/01/27 03:03:46;;;;;;;33.40;18.42;;;0.20;99.90;;;;;;5094223;28;20300;-81
2022/01/27 03:06:13;;;;;;;33.10;18.50;;;0.10;99.90;;;;;;5097651;28;20227;-81
2022/01/27 03:08:40;;;;;;;25.45;17.23;;;0.20;99.90;;;;;;5082543;28;20217;-81
2022/01/27 03:11:12;;;;;;;35.33;17.67;;;0.30;99.90;;;;;;5085907;28;20277;-81
2022/01/27 03:13:40;;;;;;;26.63;19.08;;;0.30;99.90;;;;;;5092377;28;20208;-81
2022/01/27 03:16:08;;;;;;;32.65;18.73;;;0.30;99.90;;;;;;5097232;28;20208;-80
2022/01/27 03:18:35;;;;;;;41.63;21.58;;;0.10;99.90;;;;;;5097470;28;20665;-80
2022/01/27 03:21:02;;;;;;;31.05;18.55;;;-0.10;99.90;;;;;;5096278;28;20207;-81
2022/01/27 03:23:29;;;;;;;31.25;20.35;;;0.00;99.90;;;;;;5084494;28;20201;-82
2022/01/27 03:25:55;;;;;;;31.40;17.55;;;0.20;99.90;;;;;;5077448;28;20209;-81
2022/01/27 03:28:25;;;;;;;29.65;14.90;;;0.30;99.90;;;;;;5076472;28;20225;-80
2022/01/27 03:30:53;;;;;;;31.15;18.85;;;0.40;99.90;;;;;;5084461;28;20236;-81
2022/01/27 03:33:20;;;;;;;27.75;17.02;;;0.50;99.90;;;;;;5096942;28;20214;-81
2022/01/27 03:35:47;;;;;;;28.25;17.70;;;0.50;99.90;;;;;;5088568;28;20742;-80
2022/01/27 03:38:13;;;;;;;26.38;17.83;;;0.40;99.90;;;;;;5076533;28;20236;-81
2022/01/27 03:40:40;;;;;;;29.50;20.58;;;0.30;99.90;;;;;;5076567;28;20706;-80
2022/01/27 03:43:09;;;;;;;25.95;15.93;;;0.50;99.90;;;;;;5077004;28;20206;-80
2022/01/27 03:45:36;;;;;;;32.03;20.50;;;0.60;99.90;;;;;;5082320;28;20208;-81
2022/01/27 03:48:05;;;;;;;32.70;21.60;;;0.70;99.90;;;;;;5096904;28;20228;-81
2022/01/27 03:50:32;;;;;;;22.80;15.32;;;0.50;99.90;;;;;;5091204;28;20208;-81
2022/01/27 03:52:59;;;;;;;33.25;19.90;;;0.50;99.90;;;;;;5077210;28;20211;-80
2022/01/27 03:55:26;;;;;;;26.67;16.88;;;0.50;99.90;;;;;;5082111;28;20204;-82
2022/01/27 03:57:52;;;;;;;33.15;21.05;;;0.70;99.90;;;;;;5096764;28;20733;-81
2022/01/27 04:00:19;;;;;;;33.22;19.05;;;0.80;99.90;;;;;;5093342;28;20198;-81
2022/01/27 04:02:56;;;;;;;23.67;17.70;;;0.90;99.90;;;;;;5076090;28;20205;-81
2022/01/27 04:05:24;;;;;;;29.17;18.42;;;1.00;99.90;;;;;;5076943;28;20259;-81
2022/01/27 04:07:56;;;;;;;27.65;22.20;;;1.00;99.90;;;;;;5076796;28;20232;-81
2022/01/27 04:10:24;;;;;;;35.15;18.90;;;0.90;99.90;;;;;;5078989;28;20203;-81
2022/01/27 04:12:50;;;;;;;39.72;20.65;;;0.90;99.90;;;;;;5096390;28;20625;-80
2022/01/27 04:15:17;;;;;;;34.33;20.05;;;0.80;99.90;;;;;;5096416;28;20205;-81
2022/01/27 04:17:44;;;;;;;29.67;18.38;;;0.90;99.90;;;;;;5096752;28;20228;-80
2022/01/27 04:20:12;;;;;;;31.38;18.92;;;0.90;99.90;;;;;;5095835;28;20258;-82
2022/01/27 04:22:40;;;;;;;29.33;18.13;;;0.90;99.90;;;;;;5086279;28;20206;-81
2022/01/27 04:25:07;;;;;;;31.48;19.20;;;1.00;99.90;;;;;;5080336;28;20205;-81
2022/01/27 04:27:37;;;;;;;32.35;18.65;;;1.00;99.90;;;;;;5099304;28;20217;-80
2022/01/27 04:30:05;;;;;;;31.30;17.15;;;1.00;99.90;;;;;;5098182;28;20201;-81
2022/01/27 04:32:40;;;;;;;32.45;19.35;;;1.10;99.90;;;;;;5079584;28;20211;-80
2022/01/27 04:35:11;;;;;;;29.65;17.67;;;1.10;99.90;;;;;;5082267;28;20204;-81
2022/01/27 04:37:42;;;;;;;28.90;17.73;;;0.80;99.90;;;;;;5099404;28;20297;-81
2022/01/27 04:40:15;;;;;;;32.03;18.52;;;0.90;99.90;;;;;;5097085;28;20709;-81
2022/01/27 04:42:52;;;;;;;33.33;18.70;;;0.90;99.90;;;;;;5079937;28;20667;-80
2022/01/27 04:45:22;;;;;;;33.38;20.35;;;0.90;99.90;;;;;;5080146;28;20193;-81
2022/01/27 04:47:54;;;;;;;30.88;18.88;;;0.90;99.90;;;;;;5079642;28;20236;-82
2022/01/27 04:50:20;;;;;;;30.05;15.80;;;0.80;99.90;;;;;;5080983;28;20193;-80
2022/01/27 04:52:50;;;;;;;29.50;19.17;;;0.90;99.90;;;;;;5080488;28;20572;-81
2022/01/27 04:55:21;;;;;;;26.90;18.63;;;0.80;99.90;;;;;;5086443;28;20201;-79
2022/01/27 04:57:55;;;;;;;23.30;16.58;;;0.80;99.90;;;;;;5100082;28;20228;-79
2022/01/27 05:00:22;;;;;;;27.60;18.02;;;0.40;99.90;;;;;;5093731;28;20576;-80
2022/01/27 05:02:55;;;;;;;24.48;17.58;;;0.20;99.90;;;;;;5080090;28;20675;-80
2022/01/27 05:05:22;;;;;;;30.98;17.42;;;0.30;99.90;;;;;;5085974;28;20288;-81
2022/01/27 05:07:58;;;;;;;27.25;18.40;;;0.50;99.90;;;;;;5098107;28;20220;-79
2022/01/27 05:10:30;;;;;;;34.97;19.92;;;0.40;99.90;;;;;;5092536;28;20267;-80
2022/01/27 05:13:05;;;;;;;33.67;19.60;;;0.10;99.90;;;;;;5079105;28;20204;-81
2022/01/27 05:15:32;;;;;;;30.65;18.52;;;0.20;99.90;;;;;;5085722;28;20751;-81
2022/01/27 05:17:58;;;;;;;31.90;20.23;;;0.30;99.90;;;;;;5099283;28;20252;-81
2022/01/27 05:20:25;;;;;;;29.35;16.98;;;0.40;99.90;;;;;;5099334;28;20224;-80
2022/01/27 05:22:53;;;;;;;35.63;20.65;;;0.50;99.90;;;;;;5100108;28;20218;-81
2022/01/27 05:25:19;;;;;;;31.48;19.95;;;0.40;99.90;;;;;;5081954;28;20205;-80
2022/01/27 05:27:48;;;;;;;30.48;16.50;;;0.00;99.90;;;;;;5092049;28;20713;-81
2022/01/27 05:30:14;;;;;;;29.02;17.08;;;-0.10;99.90;;;;;;5099029;28;20211;-81
2022/01/27 05:32:41;;;;;;;31.38;18.10;;;0.00;99.90;;;;;;5087547;28;20566;-81
2022/01/27 05:35:09;;;;;;;32.78;19.27;;;0.10;99.90;;;;;;5085859;28;20213;-80
2022/01/27 05:37:35;;;;;;;28.08;18.35;;;0.20;99.90;;;;;;5087054;28;20238;-81
2022/01/27 05:40:02;;;;;;;23.55;14.43;;;0.20;99.90;;;;;;5083883;28;20235;-81
2022/01/27 05:42:29;;;;;;;33.10;19.05;;;0.20;99.90;;;;;;5089984;28;20202;-80
2022/01/27 05:44:57;;;;;;;33.90;17.80;;;0.20;99.90;;;;;;5078668;28;20205;-81
2022/01/27 05:47:24;;;;;;;31.95;17.85;;;0.20;99.90;;;;;;5079273;28;20240;-81
2022/01/27 05:49:50;;;;;;;27.08;16.38;;;0.10;99.90;;;;;;5080030;28;20228;-82
2022/01/27 05:52:17;;;;;;;31.50;18.08;;;0.10;99.90;;;;;;5115040;22;20222;-84
2022/01/27 05:54:45;;;;;;;30.85;16.58;;;0.10;99.90;;;;;;5060589;28;20260;-84
2022/01/27 05:57:13;;;;;;;33.92;20.15;;;0.10;99.90;;;;;;5061740;28;20208;-83
2022/01/27 05:59:39;;;;;;;31.67;18.95;;;-0.10;99.90;;;;;;5061530;28;20234;-84
2022/01/27 06:02:08;;;;;;;29.92;16.95;;;-0.30;99.90;;;;;;5063698;28;20226;-83
2022/01/27 06:04:34;;;;;;;33.80;17.30;;;-0.30;99.90;;;;;;5066705;28;20211;-83
2022/01/27 06:07:01;;;;;;;26.17;15.95;;;-0.30;99.90;;;;;;5067297;28;20206;-84
2022/01/27 06:09:28;;;;;;;38.33;21.58;;;-0.40;99.90;;;;;;5046958;28;20666;-84
2022/01/27 06:11:55;;;;;;;29.83;17.92;;;-0.60;99.90;;;;;;5056310;28;20227;-84
2022/01/27 06:14:22;;;;;;;31.35;16.20;;;-0.40;99.90;;;;;;5040013;28;20680;-84
2022/01/27 06:16:49;;;;;;;34.53;17.80;;;-0.20;99.90;;;;;;5046933;28;20198;-83
2022/01/27 06:19:17;;;;;;;33.38;17.95;;;-0.10;99.90;;;;;;5060370;28;20229;-83
2022/01/27 06:21:44;;;;;;;26.30;15.63;;;0.10;99.90;;;;;;5051065;28;20275;-83
2022/01/27 06:24:11;;;;;;;31.83;17.10;;;0.20;99.90;;;;;;5040350;28;20209;-83
2022/01/27 06:26:38;;;;;;;32.88;18.20;;;0.20;99.90;;;;;;5040686;28;20198;-83
2022/01/27 06:29:05;;;;;;;31.65;18.13;;;0.30;99.90;;;;;;5051244;28;20224;-83
2022/01/27 06:31:32;;;;;;;32.03;18.50;;;-0.10;99.90;;;;;;5053608;28;20218;-83
2022/01/27 06:33:59;;;;;;;31.27;17.65;;;-0.40;99.90;;;;;;5040239;28;20210;-83
2022/01/27 06:36:27;;;;;;;30.75;17.25;;;-0.50;99.90;;;;;;5040529;28;20214;-83
2022/01/27 06:38:54;;;;;;;30.70;16.63;;;-0.30;99.90;;;;;;5040135;28;20229;-83
2022/01/27 06:41:21;;;;;;;30.20;17.33;;;-0.30;99.90;;;;;;5043505;28;20245;-83
2022/01/27 06:43:47;;;;;;;34.15;17.02;;;-0.20;99.90;;;;;;5060476;28;20207;-82
2022/01/27 06:46:14;;;;;;;34.40;18.67;;;-0.30;99.90;;;;;;5055229;28;20214;-83
2022/01/27 06:48:41;;;;;;;32.03;17.38;;;-0.10;99.90;;;;;;5059619;28;20210;-83
2022/01/27 06:51:07;;;;;;;29.75;17.13;;;0.00;99.90;;;;;;5046815;28;20214;-84
2022/01/27 06:53:36;;;;;;;28.85;16.58;;;-0.20;99.90;;;;;;5058914;28;20206;-82
2022/01/27 06:56:03;;;;;;;28.90;16.23;;;-0.60;99.90;;;;;;5046739;28;20570;-82
2022/01/27 06:58:29;;;;;;;29.38;16.40;;;-0.70;99.90;;;;;;5043382;28;20204;-83
2022/01/27 07:00:56;;;;;;;27.08;18.10;;;-0.80;99.90;;;;;;5058523;28;20230;-82
2022/01/27 07:03:23;;;;;;;33.22;18.45;;;-0.80;99.90;;;;;;5039057;28;20237;-82
2022/01/27 07:05:49;;;;;;;38.42;20.60;;;-0.90;99.90;;;;;;5039396;28;20221;-83
2022/01/27 07:08:16;;;;;;;34.70;19.50;;;-0.70;99.90;;;;;;5043553;28;20209;-83
2022/01/27 07:10:44;;;;;;;30.40;19.38;;;-0.60;99.90;;;;;;5039063;28;20199;-83
2022/01/27 07:13:11;;;;;;;32.80;20.85;;;-0.50;99.90;;;;;;5036462;28;20222;-83
2022/01/27 07:15:39;;;;;;;36.58;19.38;;;-0.40;99.90;;;;;;5039860;28;20248;-83
2022/01/27 07:18:06;;;;;;;31.83;18.88;;;-0.50;99.90;;;;;;5035694;28;20277;-82
2022/01/27 07:20:32;;;;;;;24.63;15.50;;;-0.80;99.90;;;;;;5036774;28;20210;-83
2022/01/27 07:22:59;;;;;;;29.15;16.23;;;-1.00;99.90;;;;;;5037764;28;20282;-83
2022/01/27 07:25:26;;;;;;;37.40;19.50;;;-1.00;99.90;;;;;;5038242;28;20194;-83
2022/01/27 07:27:54;;;;;;;23.05;15.23;;;-1.00;99.90;;;;;;5035990;28;20194;-84
2022/01/27 07:30:21;;;;;;;32.17;17.65;;;-1.00;99.90;;;;;;5038080;28;20191;-81
2022/01/27 07:32:47;;;;;;;32.63;17.55;;;-0.90;99.90;;;;;;5039331;28;20217;-81
2022/01/27 07:35:14;;;;;;;29.80;16.38;;;-1.10;99.90;;;;;;5036021;28;20212;-81
2022/01/27 07:37:43;;;;;;;35.30;16.35;;;-1.10;99.90;;;;;;5038679;28;20206;-80
2022/01/27 07:40:12;;;;;;;28.38;17.17;;;-1.00;99.90;;;;;;5037623;28;20584;-84
2022/01/27 07:42:39;;;;;;;23.02;15.57;;;-1.10;99.90;;;;;;5039998;28;20230;-79
2022/01/27 07:45:08;;;;;;;28.02;16.42;;;-1.00;99.90;;;;;;5037610;28;20217;-80
2022/01/27 07:47:35;;;;;;;25.75;16.67;;;-1.00;99.90;;;;;;5046040;28;20259;-80
2022/01/27 07:50:02;;;;;;;30.10;12.63;;;-0.90;99.90;;;;;;5058433;28;20216;-81
2022/01/27 07:52:29;;;;;;;19.27;8.30;;;-0.90;99.90;;;;;;5058032;28;20743;-81
2022/01/27 07:54:55;;;;;;;16.63;11.45;;;-1.00;99.90;;;;;;5057175;28;20201;-79
2022/01/27 07:57:22;;;;;;;25.42;13.30;;;-1.20;99.90;;;;;;5057850;28;20212;-80
2022/01/27 07:59:49;;;;;;;17.55;12.45;;;-1.20;99.90;;;;;;5059966;28;20733;-80
2022/01/27 08:02:17;;;;;;;19.17;9.65;;;-1.10;99.90;;;;;;5061390;28;20226;-80
2022/01/27 08:04:46;;;;;;;24.85;13.32;;;-1.00;99.90;;;;;;5062916;28;20206;-80
2022/01/27 08:07:13;;;;;;;30.55;15.63;;;-1.10;99.90;;;;;;5062522;28;20205;-80
2022/01/27 08:09:39;;;;;;;27.15;16.42;;;-1.20;99.90;;;;;;5062813;28;20215;-80
2022/01/27 08:12:07;;;;;;;21.35;15.00;;;-1.10;99.90;;;;;;5065483;28;20221;-80
2022/01/27 08:14:33;;;;;;;26.33;13.80;;;-1.20;99.90;;;;;;5062438;28;20201;-80
2022/01/27 08:17:00;;;;;;;22.73;13.63;;;-1.20;99.90;;;;;;5061831;28;20214;-80
2022/01/27 08:19:28;;;;;;;23.25;11.48;;;-1.20;99.90;;;;;;5061584;28;20213;-80
2022/01/27 08:21:55;;;;;;;29.30;16.20;;;-1.10;99.90;;;;;;5061322;28;20233;-80
2022/01/27 08:24:22;;;;;;;26.10;14.43;;;-1.10;99.90;;;;;;5060995;28;20213;-82
2022/01/27 08:26:50;;;;;;;27.90;15.15;;;-1.10;99.90;;;;;;5064847;28;20216;-81
2022/01/27 08:29:21;;;;;;;28.73;15.27;;;-1.00;99.90;;;;;;5062153;28;20209;-80
2022/01/27 08:31:59;;;;;;;22.80;13.95;;;-0.90;99.90;;;;;;5062165;28;20229;-81
2022/01/27 08:34:31;;;;;;;30.55;16.45;;;-0.70;99.90;;;;;;5062697;28;20629;-80
2022/01/27 08:37:00;;;;;;;36.25;16.70;;;-0.50;99.90;;;;;;5061480;28;20212;-82
2022/01/27 08:39:27;;;;;;;25.50;14.60;;;-0.50;99.90;;;;;;5061914;28;20236;-81
2022/01/27 08:41:54;;;;;;;32.38;18.45;;;-0.50;99.90;;;;;;5061290;28;20232;-81
2022/01/27 08:44:21;;;;;;;26.25;15.43;;;-0.60;99.90;;;;;;5061859;28;20692;-81
2022/01/27 08:46:47;;;;;;;24.33;14.40;;;-0.50;99.90;;;;;;5061523;28;20206;-81
2022/01/27 08:49:17;;;;;;;28.15;12.50;;;-0.50;99.90;;;;;;5061069;28;20215;-81
2022/01/27 08:51:45;;;;;;;23.48;15.90;;;-0.60;99.90;;;;;;5059737;28;20328;-80
2022/01/27 08:54:12;;;;;;;26.23;14.45;;;-0.70;99.90;;;;;;5060583;28;20206;-80
2022/01/27 08:56:39;;;;;;;29.23;15.40;;;-0.90;99.90;;;;;;5060438;28;20201;-81
2022/01/27 08:59:05;;;;;;;14.55;10.85;;;-0.80;99.90;;;;;;5060396;28;20248;-80
2022/01/27 09:01:32;;;;;;;26.45;13.75;;;-0.90;99.90;;;;;;5060349;28;20229;-81
2022/01/27 09:03:59;;;;;;;19.27;10.73;;;-0.90;99.90;;;;;;5061549;28;20212;-81
2022/01/27 09:06:28;;;;;;;28.67;15.73;;;-1.00;99.90;;;;;;5061771;28;20210;-80
2022/01/27 09:09:11;;;;;;;34.72;14.43;;;-1.00;99.90;;;;;;5064434;28;20210;-80
2022/01/27 09:11:39;;;;;;;26.77;12.52;;;-1.00;99.90;;;;;;5060089;28;20234;-80
2022/01/27 09:14:06;;;;;;;19.02;13.05;;;-1.00;99.90;;;;;;5060715;28;20240;-80
2022/01/27 09:16:34;;;;;;;24.80;14.43;;;-1.00;99.90;;;;;;5060397;28;20205;-81
2022/01/27 09:19:03;;;;;;;24.13;14.40;;;-0.90;99.90;;;;;;5059577;28;20202;-81
2022/01/27 09:21:40;;;;;;;27.00;14.35;;;-0.90;99.90;;;;;;5059710;28;20229;-80
2022/01/27 09:24:07;;;;;;;26.17;13.38;;;-0.90;99.90;;;;;;5059996;28;20204;-80
2022/01/27 09:26:50;;;;;;;22.58;15.52;;;-1.00;99.90;;;;;;5060428;28;20229;-80
2022/01/27 09:29:19;;;;;;;17.33;10.88;;;-1.00;99.90;;;;;;5061001;28;20218;-80
2022/01/27 09:31:47;;;;;;;26.40;12.95;;;-1.10;99.90;;;;;;5059525;28;20252;-81
2022/01/27 09:34:14;;;;;;;33.80;16.95;;;-1.00;99.90;;;;;;5059970;28;20267;-81
2022/01/27 09:36:41;;;;;;;31.27;14.75;;;-0.70;99.90;;;;;;5060247;28;20205;-80
2022/01/27 09:39:08;;;;;;;24.25;14.32;;;-0.30;99.90;;;;;;5060526;28;20211;-81
2022/01/27 09:41:39;;;;;;;16.70;12.15;;;0.00;99.90;;;;;;5060106;28;20233;-81
2022/01/27 09:44:09;;;;;;;31.73;15.35;;;0.30;99.90;;;;;;5060359;28;20212;-81
2022/01/27 09:46:36;;;;;;;20.00;13.48;;;0.60;99.90;;;;;;5060280;28;20216;-81
2022/01/27 09:49:10;;;;;;;18.02;11.95;;;0.90;99.90;;;;;;5060592;28;20245;-80
2022/01/27 09:51:43;;;;;;;19.27;12.52;;;1.10;99.90;;;;;;5060042;28;20227;-81
2022/01/27 09:54:10;;;;;;;20.08;12.75;;;1.20;99.90;;;;;;5060287;28;20300;-81
2022/01/27 09:56:40;;;;;;;17.83;10.43;;;1.50;99.90;;;;;;5060291;28;20203;-81
2022/01/27 09:59:07;;;;;;;20.30;11.02;;;1.60;99.90;;;;;;5060586;28;20214;-80
2022/01/27 10:01:34;;;;;;;18.75;12.73;;;1.70;99.90;;;;;;5059638;28;20235;-81
2022/01/27 10:04:04;;;;;;;17.13;11.70;;;1.80;99.90;;;;;;5066564;28;20210;-81
2022/01/27 10:06:33;;;;;;;17.05;11.65;;;1.70;99.90;;;;;;5071319;28;20287;-83
2022/01/27 10:09:18;;;;;;;23.02;12.55;;;1.80;99.90;;;;;;5071997;28;20211;-82
2022/01/27 10:11:48;;;;;;;17.67;11.35;;;1.90;99.90;;;;;;5071781;28;20703;-81
2022/01/27 10:14:21;;;;;;;24.77;12.30;;;1.80;99.90;;;;;;5073243;28;20218;-81
2022/01/27 10:16:49;;;;;;;16.45;10.73;;;1.80;99.90;;;;;;5072291;28;20253;-80
2022/01/27 10:19:16;;;;;;;21.88;12.05;;;1.70;99.90;;;;;;5062229;28;20269;-80
2022/01/27 10:21:43;;;;;;;19.60;11.68;;;1.60;99.90;;;;;;5059881;28;20304;-80
2022/01/27 10:24:32;;;;;;;18.38;10.70;;;1.60;99.90;;;;;;5061493;28;20587;-81
2022/01/27 10:27:22;;;;;;;17.58;11.48;;;1.50;99.90;;;;;;5065768;28;20206;-83
2022/01/27 10:32:42;;;;;;;16.70;11.90;;;1.60;99.90;;;;;;5008117;28;20215;-78
2022/01/27 10:35:10;;;;;;;20.38;9.98;;;1.70;99.90;;;;;;5033110;28;20653;-79
2022/01/27 10:38:00;;;;;;;15.50;10.88;;;1.70;99.90;;;;;;5033353;28;20207;-78
2022/01/27 10:40:29;;;;;;;13.30;9.35;;;1.80;99.90;;;;;;5014213;28;20213;-80
2022/01/27 10:43:07;;;;;;;22.15;11.60;;;1.80;99.90;;;;;;5013837;28;20604;-80
2022/01/27 10:45:34;;;;;;;22.30;11.38;;;1.90;99.90;;;;;;5014043;28;20573;-78
2022/01/27 10:48:11;;;;;;;18.17;10.90;;;1.90;99.90;;;;;;5013341;28;20243;-80
2022/01/27 10:50:58;;;;;;;17.08;10.05;;;2.00;99.90;;;;;;5016489;28;20287;-83
2022/01/27 10:53:55;;;;;;;16.20;11.10;;;2.20;99.90;;;;;;5041222;28;20228;-81
2022/01/27 10:56:24;;;;;;;16.90;12.20;;;2.30;99.90;;;;;;5049963;28;20214;-80
2022/01/27 10:58:53;;;;;;;18.42;12.98;;;2.40;99.90;;;;;;5036030;28;20811;-80
2022/01/27 11:01:28;;;;;;;17.90;11.18;;;2.50;99.90;;;;;;5074424;22;20239;-81
2022/01/27 11:03:58;;;;;;;19.70;13.75;;;2.70;99.90;;;;;;5114872;28;20201;-79
2022/01/27 11:06:26;;;;;;;17.52;13.00;;;2.80;99.90;;;;;;5113680;28;20717;-80
2022/01/27 11:08:55;;;;;;;16.92;10.00;;;2.80;99.90;;;;;;5116360;28;20252;-80
2022/01/27 11:11:23;;;;;;;20.42;10.85;;;2.80;99.90;;;;;;5116512;28;20683;-80
2022/01/27 11:13:53;;;;;;;15.77;10.68;;;2.70;99.90;;;;;;5117016;28;20695;-80
2022/01/27 11:16:26;;;;;;;16.27;10.70;;;2.80;99.90;;;;;;5117292;28;20666;-81
2022/01/27 11:19:00;;;;;;;19.67;10.70;;;2.80;99.90;;;;;;5116971;28;20344;-80
2022/01/27 11:21:34;;;;;;;21.42;10.15;;;2.70;99.90;;;;;;5116638;28;20238;-81
2022/01/27 11:24:08;;;;;;;17.50;11.13;;;2.60;99.90;;;;;;5116369;28;20228;-80
2022/01/27 11:26:40;;;;;;;19.90;11.07;;;2.50;99.90;;;;;;5115154;28;20252;-80
2022/01/27 11:29:09;;;;;;;15.32;10.27;;;2.50;99.90;;;;;;5115360;28;20240;-80
2022/01/27 11:32:16;;;;;;;17.50;9.05;;;2.60;99.90;;;;;;5116897;28;20226;-80
2022/01/27 11:34:48;;;;;;;19.13;10.32;;;2.50;99.90;;;;;;5116554;28;20187;-80
2022/01/27 11:37:18;;;;;;;16.33;11.38;;;2.70;99.90;;;;;;5103296;28;20207;-80
2022/01/27 11:39:50;;;;;;;12.90;9.60;;;2.90;99.90;;;;;;5099929;28;20241;-82
2022/01/27 11:42:38;;;;;;;14.93;9.02;;;2.80;99.90;;;;;;5101567;28;20230;-83
2022/01/27 11:45:28;;;;;;;15.27;9.70;;;2.90;99.90;;;;;;5091726;28;20217;-81
2022/01/27 11:47:58;;;;;;;15.27;9.43;;;2.90;99.90;;;;;;5103294;28;20212;-81
2022/01/27 11:50:32;;;;;;;11.77;9.07;;;2.90;99.90;;;;;;5120699;28;20206;-81
2022/01/27 11:52:59;;;;;;;15.85;8.65;;;3.00;99.90;;;;;;5116838;28;20696;-80
2022/01/27 11:55:56;;;;;;;17.15;9.55;;;3.10;99.90;;;;;;5114435;28;20293;-81
2022/01/27 11:58:25;;;;;;;15.13;9.05;;;2.80;99.90;;;;;;5114841;28;20188;-80
2022/01/27 12:01:10;;;;;;;15.13;9.68;;;2.80;99.90;;;;;;5114426;28;20217;-80
2022/01/27 12:03:37;;;;;;;15.02;10.07;;;2.60;99.90;;;;;;5117162;28;20194;-83
2022/01/27 12:06:16;;;;;;;21.15;10.38;;;2.70;99.90;;;;;;5118894;28;20700;-81
2022/01/27 12:08:43;;;;;;;16.13;10.02;;;2.70;99.90;;;;;;5115560;28;20204;-81
2022/01/27 12:11:12;;;;;;;11.82;7.97;;;2.70;99.90;;;;;;5115566;28;20202;-81
2022/01/27 12:14:01;;;;;;;15.55;11.07;;;2.70;99.90;;;;;;5115212;28;20293;-81
2022/01/27 12:16:52;;;;;;;13.95;9.00;;;2.80;99.90;;;;;;5115761;28;20188;-81
2022/01/27 12:19:19;;;;;;;13.68;9.55;;;2.70;99.90;;;;;;5104568;28;20201;-81
2022/01/27 12:21:57;;;;;;;14.52;9.45;;;2.80;99.90;;;;;;5114881;28;20718;-81
2022/01/27 12:24:27;;;;;;;13.20;8.63;;;2.90;99.90;;;;;;5115478;28;20218;-81
2022/01/27 12:26:56;;;;;;;11.75;8.73;;;2.90;99.90;;;;;;5116504;28;20607;-81
2022/01/27 12:29:32;;;;;;;15.50;11.05;;;3.10;99.90;;;;;;5117985;28;20218;-81
2022/01/27 12:32:02;;;;;;;15.07;9.25;;;3.30;99.90;;;;;;5114681;28;20216;-81
2022/01/27 12:34:30;;;;;;;15.48;9.93;;;3.40;99.90;;;;;;5115188;28;20198;-80
2022/01/27 12:37:03;;;;;;;14.13;9.18;;;3.60;99.90;;;;;;5115173;28;20203;-80
2022/01/27 12:39:32;;;;;;;16.15;9.20;;;3.70;99.90;;;;;;5114725;28;20665;-80
2022/01/27 12:42:04;;;;;;;13.43;9.50;;;3.80;99.90;;;;;;5114249;28;20699;-80
2022/01/27 12:44:31;;;;;;;11.50;9.18;;;3.70;99.90;;;;;;5115056;28;20213;-80
2022/01/27 12:47:08;;;;;;;15.75;10.25;;;3.70;99.90;;;;;;5118460;28;20202;-79
2022/01/27 12:49:38;;;;;;;12.27;8.65;;;3.90;99.90;;;;;;5118597;28;20238;-80
2022/01/27 12:52:07;;;;;;;13.43;10.00;;;4.00;99.90;;;;;;5118336;28;20219;-80
2022/01/27 12:54:34;;;;;;;16.90;10.13;;;4.00;99.90;;;;;;5119282;28;20288;-80
2022/01/27 12:57:01;;;;;;;11.77;10.55;;;4.20;99.90;;;;;;5119325;28;20584;-80
2022/01/27 12:59:33;;;;;;;15.38;10.73;;;4.20;99.90;;;;;;5118896;28;20207;-80
2022/01/27 13:02:01;;;;;;;16.10;10.80;;;4.30;99.90;;;;;;5117619;28;20615;-80
2022/01/27 13:04:30;;;;;;;10.75;8.60;;;4.20;99.90;;;;;;5118646;28;20230;-80
2022/01/27 13:06:57;;;;;;;14.35;8.75;;;4.30;99.90;;;;;;5117846;28;20204;-79
2022/01/27 13:09:26;;;;;;;12.77;9.75;;;4.30;99.90;;;;;;5120743;28;20292;-84
2022/01/27 13:11:55;;;;;;;14.45;11.48;;;4.30;99.90;;;;;;5124087;28;20328;-84
2022/01/27 13:14:21;;;;;;;16.73;10.18;;;4.20;99.90;;;;;;5122507;28;20307;-84